Time;durP1;ratioP1;P1;durP2;ratioP2;P2;SDS_P1;SDS_P2;PMS_P1;PMS_P2;Temp;Humidity;BMP_temperature;BMP_pressure;BME280_temperature;BME280_humidity;BME280_pressure;Samples;Min_cycle;Max_cycle;Signal;HPM_P1;HPM_P2
2022/07/18 00:01:38;;;;;;;6.85;3.53;;;20.40;99.90;;;;;;4952702;29;20689;-62
2022/07/18 00:04:04;;;;;;;5.38;3.47;;;20.40;99.90;;;;;;4952606;29;20640;-61
2022/07/18 00:06:29;;;;;;;9.73;3.53;;;20.30;99.90;;;;;;4952507;29;20220;-61
2022/07/18 00:08:55;;;;;;;5.22;3.35;;;20.20;99.90;;;;;;4952545;29;20621;-61
2022/07/18 00:11:22;;;;;;;6.55;3.47;;;20.20;99.90;;;;;;4952509;29;20183;-61
2022/07/18 00:13:47;;;;;;;7.10;3.47;;;20.20;99.90;;;;;;4952692;29;20195;-61
2022/07/18 00:16:14;;;;;;;10.15;3.70;;;20.10;99.90;;;;;;4952314;29;20703;-61
2022/07/18 00:18:39;;;;;;;6.90;3.70;;;20.20;99.90;;;;;;4952401;28;20179;-61
2022/07/18 00:21:05;;;;;;;5.65;3.60;;;20.10;99.90;;;;;;4955491;29;20198;-61
2022/07/18 00:23:31;;;;;;;10.55;3.40;;;20.10;99.90;;;;;;4955898;29;20719;-61
2022/07/18 00:25:57;;;;;;;8.15;3.92;;;20.00;99.90;;;;;;4955950;29;20212;-62
2022/07/18 00:28:23;;;;;;;8.45;3.50;;;19.90;99.90;;;;;;4956040;29;20176;-61
2022/07/18 00:30:48;;;;;;;9.50;3.65;;;19.90;99.90;;;;;;4955712;29;20683;-61
2022/07/18 00:33:14;;;;;;;4.65;3.10;;;19.90;99.90;;;;;;4955732;29;20180;-61
2022/07/18 00:35:40;;;;;;;5.63;3.40;;;19.90;99.90;;;;;;4954284;29;20251;-62
2022/07/18 00:38:06;;;;;;;4.75;3.38;;;19.80;99.90;;;;;;4955731;29;20259;-61
2022/07/18 00:40:32;;;;;;;5.95;3.65;;;19.70;99.90;;;;;;4955700;29;20168;-61
2022/07/18 00:42:58;;;;;;;7.90;3.50;;;19.50;99.90;;;;;;4954230;29;20200;-61
2022/07/18 00:45:24;;;;;;;8.20;3.33;;;19.40;99.90;;;;;;4955408;29;20204;-62
2022/07/18 00:47:51;;;;;;;6.03;3.00;;;19.30;99.90;;;;;;4955525;28;20323;-61
2022/07/18 00:50:18;;;;;;;5.15;3.08;;;19.10;99.90;;;;;;4955330;28;20183;-61
2022/07/18 00:52:44;;;;;;;5.45;3.38;;;19.10;99.90;;;;;;4955436;29;20185;-61
2022/07/18 00:55:11;;;;;;;4.13;3.10;;;19.10;99.90;;;;;;4955323;28;20180;-62
2022/07/18 00:57:40;;;;;;;7.03;3.33;;;19.00;99.90;;;;;;4955446;29;20208;-62
2022/07/18 01:02:56;;;;;;;7.32;3.22;;;19.00;99.90;;;;;;4955415;29;20175;-61
2022/07/18 01:05:22;;;;;;;5.72;2.95;;;19.00;99.90;;;;;;4955101;29;20193;-61
2022/07/18 01:07:49;;;;;;;6.15;3.15;;;18.90;99.90;;;;;;4955166;29;20630;-60
2022/07/18 01:10:15;;;;;;;7.18;3.25;;;18.70;99.90;;;;;;4955091;28;20185;-61
2022/07/18 01:12:40;;;;;;;13.52;3.28;;;18.60;99.90;;;;;;4955056;29;20694;-60
2022/07/18 01:15:07;;;;;;;4.88;3.10;;;18.50;99.90;;;;;;4954835;29;20556;-60
2022/07/18 01:17:33;;;;;;;6.05;3.22;;;18.50;99.90;;;;;;4954909;29;20181;-61
2022/07/18 01:19:59;;;;;;;11.60;3.22;;;18.50;99.90;;;;;;4955125;29;20511;-61
2022/07/18 01:22:25;;;;;;;8.10;3.75;;;18.50;99.90;;;;;;4954780;29;20196;-60
2022/07/18 01:24:50;;;;;;;5.72;3.00;;;18.50;99.90;;;;;;4954856;29;20181;-61
2022/07/18 01:27:18;;;;;;;4.35;3.00;;;18.50;99.90;;;;;;4954792;29;20215;-61
2022/07/18 01:29:46;;;;;;;7.68;3.30;;;18.50;99.90;;;;;;4954494;29;20200;-60
2022/07/18 01:32:13;;;;;;;4.75;3.20;;;18.50;99.90;;;;;;4953656;28;20231;-60
2022/07/18 01:34:39;;;;;;;5.35;3.50;;;18.40;99.90;;;;;;4954645;29;20184;-60
2022/07/18 01:37:05;;;;;;;4.50;3.42;;;18.40;99.90;;;;;;4954642;29;20227;-61
2022/07/18 01:39:32;;;;;;;7.13;3.40;;;18.40;99.90;;;;;;4954691;29;20181;-60
2022/07/18 01:42:01;;;;;;;7.40;3.13;;;18.40;99.90;;;;;;4954488;29;20176;-62
2022/07/18 01:44:27;;;;;;;6.78;3.40;;;18.50;99.90;;;;;;4954418;29;20263;-60
2022/07/18 01:46:53;;;;;;;4.55;2.50;;;18.50;99.90;;;;;;4954233;29;20573;-61
2022/07/18 01:49:19;;;;;;;4.60;2.80;;;18.30;99.90;;;;;;4954423;29;20173;-59
2022/07/18 01:51:50;;;;;;;4.38;3.25;;;18.30;99.90;;;;;;4954318;28;20187;-60
2022/07/18 01:54:16;;;;;;;5.88;3.20;;;18.30;99.90;;;;;;4953096;29;20168;-61
2022/07/18 01:56:42;;;;;;;6.75;2.95;;;18.20;99.90;;;;;;4954168;29;20184;-59
2022/07/18 01:59:08;;;;;;;5.38;3.70;;;18.10;99.90;;;;;;4954163;29;20165;-60
2022/07/18 02:01:34;;;;;;;6.32;3.33;;;18.00;99.90;;;;;;4954103;29;20169;-61
2022/07/18 02:03:59;;;;;;;6.70;3.53;;;17.90;99.90;;;;;;4954342;29;20215;-60
2022/07/18 02:06:25;;;;;;;4.63;3.03;;;17.90;99.90;;;;;;4954214;29;20303;-60
2022/07/18 02:08:51;;;;;;;4.95;3.13;;;17.90;99.90;;;;;;4954046;29;20176;-60
2022/07/18 02:11:17;;;;;;;7.78;3.22;;;17.80;99.90;;;;;;4954136;29;20176;-60
2022/07/18 02:13:42;;;;;;;7.32;3.03;;;17.80;99.90;;;;;;4953901;29;20660;-61
2022/07/18 02:16:08;;;;;;;6.57;3.60;;;17.80;99.90;;;;;;4953666;29;20692;-60
2022/07/18 02:18:34;;;;;;;6.00;3.10;;;17.70;99.90;;;;;;4953990;29;20682;-60
2022/07/18 02:21:00;;;;;;;4.85;3.33;;;17.70;99.90;;;;;;4953761;29;20710;-60
2022/07/18 02:23:26;;;;;;;4.70;2.88;;;17.60;99.90;;;;;;4953759;28;20169;-60
2022/07/18 02:25:52;;;;;;;4.88;3.08;;;17.60;99.90;;;;;;4953697;29;20215;-59
2022/07/18 02:28:18;;;;;;;4.85;3.42;;;17.50;99.90;;;;;;4953691;29;20177;-60
2022/07/18 02:30:45;;;;;;;7.45;3.17;;;17.50;99.90;;;;;;4953687;29;20180;-60
2022/07/18 02:33:10;;;;;;;8.75;2.90;;;17.40;99.90;;;;;;4953713;29;20200;-61
2022/07/18 02:35:36;;;;;;;6.15;3.08;;;17.40;99.90;;;;;;4953527;29;20654;-60
2022/07/18 02:38:03;;;;;;;8.48;3.13;;;17.40;99.90;;;;;;4953516;29;20177;-60
2022/07/18 02:40:28;;;;;;;11.07;3.58;;;17.40;99.90;;;;;;4953523;29;20254;-60
2022/07/18 02:42:54;;;;;;;4.95;3.55;;;17.30;99.90;;;;;;4953261;28;20635;-60
2022/07/18 02:45:20;;;;;;;5.78;3.58;;;17.40;99.90;;;;;;4953391;29;20172;-60
2022/07/18 02:47:46;;;;;;;7.47;3.20;;;17.30;99.90;;;;;;4953359;28;20544;-61
2022/07/18 02:50:12;;;;;;;4.18;3.05;;;17.30;99.90;;;;;;4953351;29;20244;-59
2022/07/18 02:52:40;;;;;;;6.43;3.25;;;17.40;99.90;;;;;;4953301;29;20180;-60
2022/07/18 02:55:06;;;;;;;10.43;3.65;;;17.30;99.90;;;;;;4953107;28;20536;-60
2022/07/18 02:57:32;;;;;;;7.65;3.90;;;17.30;99.90;;;;;;4953261;29;20172;-60
2022/07/18 02:59:58;;;;;;;10.15;3.08;;;17.30;99.90;;;;;;4953252;29;20215;-60
2022/07/18 03:02:25;;;;;;;6.97;3.35;;;17.30;99.90;;;;;;4953284;29;20703;-60
2022/07/18 03:04:51;;;;;;;7.53;3.30;;;17.30;99.90;;;;;;4953128;29;20185;-60
2022/07/18 03:07:17;;;;;;;6.20;3.50;;;17.20;99.90;;;;;;4952932;29;20208;-60
2022/07/18 03:09:42;;;;;;;8.75;3.72;;;17.20;99.90;;;;;;4953029;29;20211;-60
2022/07/18 03:12:08;;;;;;;8.20;3.10;;;17.20;99.90;;;;;;4951780;29;20215;-60
2022/07/18 03:14:34;;;;;;;5.68;3.47;;;17.30;99.90;;;;;;4953042;29;20357;-60
2022/07/18 03:17:00;;;;;;;7.95;3.40;;;17.30;99.90;;;;;;4953177;29;20619;-60
2022/07/18 03:19:26;;;;;;;7.47;3.70;;;17.40;99.90;;;;;;4952797;29;20663;-60
2022/07/18 03:21:52;;;;;;;13.15;3.92;;;17.40;99.90;;;;;;4952856;29;20247;-60
2022/07/18 03:24:18;;;;;;;5.22;3.72;;;17.40;99.90;;;;;;4953276;29;20529;-60
2022/07/18 03:26:44;;;;;;;10.32;3.97;;;17.40;99.90;;;;;;4952890;29;20422;-60
2022/07/18 03:29:11;;;;;;;5.63;3.28;;;17.40;99.90;;;;;;4953057;29;20181;-60
2022/07/18 03:31:36;;;;;;;5.05;3.38;;;17.40;99.90;;;;;;4952824;29;20183;-60
2022/07/18 03:34:03;;;;;;;7.30;4.30;;;17.40;99.90;;;;;;4952880;29;20180;-60
2022/07/18 03:36:29;;;;;;;5.95;4.00;;;17.30;99.90;;;;;;4952812;29;20176;-60
2022/07/18 03:38:55;;;;;;;6.47;3.90;;;17.30;99.90;;;;;;4952739;29;20555;-60
2022/07/18 03:41:21;;;;;;;9.23;3.78;;;17.30;99.90;;;;;;4952913;29;20215;-60
2022/07/18 03:43:47;;;;;;;9.70;4.10;;;17.20;99.90;;;;;;4952593;29;20185;-60
2022/07/18 03:46:13;;;;;;;7.97;4.15;;;17.10;99.90;;;;;;4952689;29;20231;-60
2022/07/18 03:48:39;;;;;;;6.53;3.97;;;17.10;99.90;;;;;;4952766;29;20635;-60
2022/07/18 03:51:05;;;;;;;7.30;3.92;;;17.10;99.90;;;;;;4952645;29;20267;-60
2022/07/18 03:53:31;;;;;;;5.88;3.72;;;17.00;99.90;;;;;;4952694;28;20591;-60
2022/07/18 03:55:57;;;;;;;7.13;3.70;;;17.00;99.90;;;;;;4955740;29;20168;-60
2022/07/18 03:58:23;;;;;;;7.97;3.72;;;16.90;99.90;;;;;;4956435;29;20297;-61
2022/07/18 04:00:49;;;;;;;9.93;4.10;;;16.90;99.90;;;;;;4956490;28;20552;-61
2022/07/18 04:03:16;;;;;;;8.52;4.45;;;16.90;99.90;;;;;;4956339;29;20673;-61
2022/07/18 04:05:42;;;;;;;9.38;4.32;;;16.90;99.90;;;;;;4956180;29;20675;-61
2022/07/18 04:08:07;;;;;;;9.25;4.35;;;16.80;99.90;;;;;;4956225;29;20172;-60
2022/07/18 04:10:33;;;;;;;11.60;4.20;;;16.80;99.90;;;;;;4956203;29;20176;-60
2022/07/18 04:12:59;;;;;;;8.05;4.10;;;16.70;99.90;;;;;;4956129;29;20176;-60
2022/07/18 04:15:27;;;;;;;9.00;3.90;;;16.70;99.90;;;;;;4955958;29;20221;-60
2022/07/18 04:17:53;;;;;;;12.63;3.67;;;16.70;99.90;;;;;;4956106;29;20177;-60
2022/07/18 04:20:21;;;;;;;9.00;3.92;;;16.60;99.90;;;;;;4955980;29;20539;-60
2022/07/18 04:22:48;;;;;;;9.23;3.88;;;16.50;99.90;;;;;;4956025;29;20168;-61
2022/07/18 04:25:14;;;;;;;7.88;3.92;;;16.40;99.90;;;;;;4955830;29;20183;-59
2022/07/18 04:27:40;;;;;;;14.15;4.28;;;16.40;99.90;;;;;;4955979;29;20177;-60
2022/07/18 04:30:07;;;;;;;6.15;3.67;;;16.40;99.90;;;;;;4955886;29;20187;-59
2022/07/18 04:32:32;;;;;;;7.63;4.20;;;16.30;99.90;;;;;;4955778;28;20644;-60
2022/07/18 04:34:58;;;;;;;9.77;3.92;;;16.30;99.90;;;;;;4955817;29;20181;-60
2022/07/18 04:37:24;;;;;;;9.30;3.80;;;16.30;99.90;;;;;;4956141;29;20188;-59
2022/07/18 04:39:50;;;;;;;6.68;4.10;;;16.30;99.90;;;;;;4955708;29;20668;-60
2022/07/18 04:42:15;;;;;;;6.57;4.03;;;16.30;99.90;;;;;;4955689;29;20224;-61
2022/07/18 04:44:41;;;;;;;6.93;3.88;;;16.30;99.90;;;;;;4955671;29;20797;-60
2022/07/18 04:47:07;;;;;;;9.60;3.80;;;16.30;99.90;;;;;;4955600;29;20341;-60
2022/07/18 04:49:33;;;;;;;8.55;4.43;;;16.30;99.90;;;;;;4955538;29;20630;-60
2022/07/18 04:51:59;;;;;;;9.43;4.18;;;16.40;99.90;;;;;;4955365;29;20179;-60
2022/07/18 04:54:25;;;;;;;7.25;4.15;;;16.50;99.90;;;;;;4955393;29;20172;-60
2022/07/18 04:56:51;;;;;;;10.70;4.55;;;16.50;99.90;;;;;;4955480;29;20184;-60
2022/07/18 04:59:16;;;;;;;9.55;4.55;;;16.50;99.90;;;;;;4955383;29;20632;-60
2022/07/18 05:01:42;;;;;;;10.75;3.85;;;16.50;99.90;;;;;;4955336;29;20183;-60
2022/07/18 05:04:08;;;;;;;12.35;4.63;;;16.60;99.90;;;;;;4955213;29;20651;-60
2022/07/18 05:06:34;;;;;;;11.48;4.25;;;16.60;99.90;;;;;;4955044;28;20671;-60
2022/07/18 05:09:00;;;;;;;11.25;4.43;;;16.60;99.90;;;;;;4955171;29;20207;-60
2022/07/18 05:11:25;;;;;;;9.38;3.83;;;16.60;99.90;;;;;;4955273;29;20235;-60
2022/07/18 05:13:51;;;;;;;7.25;4.50;;;16.70;99.90;;;;;;4955085;29;20169;-60
2022/07/18 05:16:17;;;;;;;11.43;4.60;;;16.70;99.90;;;;;;4954834;29;20213;-60
2022/07/18 05:18:43;;;;;;;9.13;4.45;;;16.70;99.90;;;;;;4955016;28;20643;-60
2022/07/18 05:21:09;;;;;;;9.05;4.75;;;16.80;99.90;;;;;;4954817;29;20644;-60
2022/07/18 05:23:35;;;;;;;8.15;4.30;;;16.80;99.90;;;;;;4954932;28;20655;-61
2022/07/18 05:26:00;;;;;;;10.27;4.20;;;16.90;99.90;;;;;;4954745;29;20220;-60
2022/07/18 05:28:26;;;;;;;17.30;4.57;;;16.90;99.90;;;;;;4954756;29;20256;-60
2022/07/18 05:30:54;;;;;;;9.45;4.95;;;16.90;99.90;;;;;;4953590;29;20180;-60
2022/07/18 05:33:20;;;;;;;7.72;4.45;;;16.90;99.90;;;;;;4954668;29;20181;-61
2022/07/18 05:35:46;;;;;;;12.18;4.93;;;17.00;99.90;;;;;;4955153;29;20216;-61
2022/07/18 05:38:12;;;;;;;7.63;4.38;;;17.10;99.90;;;;;;4954577;29;20212;-61
2022/07/18 05:40:38;;;;;;;9.57;4.72;;;17.10;99.90;;;;;;4954636;29;20180;-60
2022/07/18 05:43:04;;;;;;;8.73;4.18;;;17.20;99.90;;;;;;4954511;29;20173;-60
2022/07/18 05:45:30;;;;;;;9.88;4.25;;;17.30;99.90;;;;;;4954622;29;20264;-60
2022/07/18 05:47:55;;;;;;;7.63;4.40;;;17.30;99.90;;;;;;4954393;29;20644;-60
2022/07/18 05:50:23;;;;;;;15.20;4.40;;;17.50;99.90;;;;;;4954323;29;20184;-60
2022/07/18 05:52:49;;;;;;;10.68;4.65;;;17.50;99.90;;;;;;4954549;28;20183;-60
2022/07/18 05:55:15;;;;;;;14.13;5.43;;;17.50;99.90;;;;;;4954304;29;20577;-60
2022/07/18 05:57:41;;;;;;;9.57;4.82;;;17.60;99.90;;;;;;4954256;28;20177;-60
2022/07/18 06:00:10;;;;;;;13.60;4.35;;;17.60;99.90;;;;;;4954251;29;20171;-61
2022/07/18 06:02:36;;;;;;;10.88;4.65;;;17.70;99.90;;;;;;4954141;28;20181;-59
2022/07/18 06:05:03;;;;;;;13.38;4.57;;;17.80;99.90;;;;;;4953985;29;20176;-60
2022/07/18 06:07:29;;;;;;;17.25;4.70;;;17.90;99.90;;;;;;4953902;29;20218;-60
2022/07/18 06:09:55;;;;;;;12.80;4.63;;;17.90;99.90;;;;;;4954096;29;20176;-61
2022/07/18 06:12:21;;;;;;;14.13;4.60;;;18.10;99.90;;;;;;4954020;29;20177;-60
2022/07/18 06:14:47;;;;;;;9.73;4.80;;;18.10;99.90;;;;;;4953874;29;20291;-60
2022/07/18 06:17:13;;;;;;;11.77;4.95;;;18.30;99.90;;;;;;4953351;28;20263;-60
2022/07/18 06:19:39;;;;;;;15.68;6.13;;;18.30;99.90;;;;;;4953791;29;20455;-61
2022/07/18 06:22:05;;;;;;;17.63;5.18;;;18.40;99.90;;;;;;4953635;29;20185;-60
2022/07/18 06:24:31;;;;;;;9.80;4.47;;;18.50;99.90;;;;;;4953639;28;20176;-60
2022/07/18 06:26:57;;;;;;;10.40;4.95;;;18.60;99.90;;;;;;4953691;29;20212;-61
2022/07/18 06:29:22;;;;;;;24.42;4.90;;;18.70;99.90;;;;;;4953688;29;20552;-59
2022/07/18 06:31:48;;;;;;;16.65;5.53;;;18.80;99.90;;;;;;4953575;29;20585;-60
2022/07/18 06:34:14;;;;;;;19.88;4.60;;;18.90;99.90;;;;;;4953632;29;20658;-60
2022/07/18 06:36:40;;;;;;;19.00;4.80;;;19.00;99.90;;;;;;4953598;29;20187;-59
2022/07/18 06:39:09;;;;;;;14.35;4.82;;;19.10;99.90;;;;;;4953392;29;20628;-61
2022/07/18 06:41:35;;;;;;;19.27;4.85;;;19.20;99.90;;;;;;4953414;28;20191;-60
2022/07/18 06:44:01;;;;;;;24.48;5.35;;;19.30;99.90;;;;;;4953401;29;20635;-60
2022/07/18 06:46:27;;;;;;;16.27;5.53;;;19.40;99.90;;;;;;4953185;29;20208;-60
2022/07/18 06:48:53;;;;;;;24.05;5.57;;;19.50;99.90;;;;;;4953223;29;20540;-60
2022/07/18 06:51:19;;;;;;;11.32;5.22;;;19.60;99.90;;;;;;4953275;29;20240;-60
2022/07/18 06:53:45;;;;;;;14.60;5.60;;;19.80;99.90;;;;;;4953201;29;20176;-60
2022/07/18 06:56:10;;;;;;;27.90;6.30;;;19.80;99.90;;;;;;4953201;29;20255;-61
2022/07/18 06:58:36;;;;;;;17.17;7.07;;;19.90;99.90;;;;;;4953355;29;20172;-61
2022/07/18 07:01:02;;;;;;;19.30;7.25;;;20.10;99.90;;;;;;4953025;29;20706;-61
2022/07/18 07:03:28;;;;;;;14.48;8.40;;;20.20;99.90;;;;;;4953222;29;20172;-61
2022/07/18 07:05:54;;;;;;;18.77;7.72;;;20.30;99.90;;;;;;4953038;29;20207;-61
2022/07/18 07:08:20;;;;;;;13.82;8.18;;;20.50;99.90;;;;;;4953111;29;20280;-61
2022/07/18 07:10:46;;;;;;;16.25;8.30;;;20.60;99.90;;;;;;4953037;29;20644;-61
2022/07/18 07:13:12;;;;;;;19.52;8.07;;;20.80;99.90;;;;;;4952908;29;20676;-61
2022/07/18 07:15:40;;;;;;;20.63;8.65;;;20.90;99.90;;;;;;4952861;29;20224;-61
2022/07/18 07:18:06;;;;;;;24.20;8.95;;;21.10;99.90;;;;;;4952981;29;20183;-61
2022/07/18 07:20:31;;;;;;;20.90;8.45;;;21.20;99.90;;;;;;4952909;29;20176;-61
2022/07/18 07:22:58;;;;;;;23.58;8.65;;;21.30;99.90;;;;;;4952757;29;20180;-61
2022/07/18 07:25:26;;;;;;;21.25;8.50;;;21.60;99.90;;;;;;4952740;29;20183;-62
2022/07/18 07:27:53;;;;;;;20.45;8.70;;;21.80;99.90;;;;;;4952630;29;20181;-61
2022/07/18 07:30:19;;;;;;;24.92;8.40;;;22.00;99.90;;;;;;4953311;28;20200;-62
2022/07/18 07:32:46;;;;;;;16.73;8.13;;;22.20;99.90;;;;;;4956716;29;20270;-61
2022/07/18 07:35:13;;;;;;;16.25;8.93;;;22.20;99.90;;;;;;4956738;29;20204;-61
2022/07/18 07:37:48;;;;;;;18.33;8.48;;;22.00;99.90;;;;;;4956607;29;20173;-61
2022/07/18 07:40:15;;;;;;;18.42;8.65;;;22.10;99.90;;;;;;4956581;29;20180;-61
2022/07/18 07:42:41;;;;;;;26.38;8.13;;;22.20;99.90;;;;;;4956455;29;20176;-61
2022/07/18 07:45:08;;;;;;;15.75;8.20;;;22.30;99.90;;;;;;4956513;29;20168;-61
2022/07/18 07:47:35;;;;;;;22.75;8.93;;;22.50;99.90;;;;;;4956312;29;20248;-61
2022/07/18 07:50:03;;;;;;;17.25;8.75;;;22.60;99.90;;;;;;4956540;29;20183;-61
2022/07/18 07:52:29;;;;;;;22.65;8.10;;;22.80;99.90;;;;;;4956424;29;20176;-62
2022/07/18 07:54:54;;;;;;;19.83;9.07;;;22.90;99.90;;;;;;4956383;29;20236;-62
2022/07/18 07:57:20;;;;;;;33.13;8.73;;;23.10;99.90;;;;;;4956340;29;20272;-61
2022/07/18 07:59:46;;;;;;;17.80;7.97;;;23.30;99.90;;;;;;4956273;29;20177;-62
2022/07/18 08:02:13;;;;;;;18.08;9.05;;;23.50;99.90;;;;;;4956387;29;20173;-61
2022/07/18 08:04:39;;;;;;;15.00;8.80;;;23.60;99.90;;;;;;4956307;29;20666;-62
2022/07/18 08:07:04;;;;;;;14.82;8.35;;;23.60;99.90;;;;;;4956215;29;20204;-61
2022/07/18 08:09:30;;;;;;;23.85;9.20;;;23.80;99.90;;;;;;4956273;29;20193;-61
2022/07/18 08:11:56;;;;;;;14.75;9.48;;;24.00;99.90;;;;;;4956047;29;20177;-61
2022/07/18 08:14:22;;;;;;;16.48;8.80;;;24.50;99.90;;;;;;4956072;29;20172;-61
2022/07/18 08:16:48;;;;;;;16.15;8.23;;;24.70;99.90;;;;;;4956197;29;20180;-62
2022/07/18 08:19:14;;;;;;;21.08;8.60;;;24.70;99.90;;;;;;4956064;29;20247;-61
2022/07/18 08:21:39;;;;;;;16.90;8.05;;;25.00;99.90;;;;;;4955956;29;20188;-61
2022/07/18 08:24:05;;;;;;;12.82;8.77;;;25.40;99.90;;;;;;4955989;29;20173;-61
2022/07/18 08:26:34;;;;;;;13.02;8.18;;;25.60;99.90;;;;;;4955677;29;20691;-62
2022/07/18 08:28:59;;;;;;;19.13;8.75;;;25.90;99.90;;;;;;4955775;29;20259;-62
2022/07/18 08:31:25;;;;;;;16.02;8.07;;;25.90;99.90;;;;;;4955484;28;20676;-62
2022/07/18 08:33:51;;;;;;;13.25;7.82;;;26.10;99.90;;;;;;4955767;28;20197;-62
2022/07/18 08:36:17;;;;;;;15.90;8.38;;;25.90;99.90;;;;;;4955853;29;20239;-61
2022/07/18 08:38:43;;;;;;;15.10;8.30;;;25.80;99.90;;;;;;4955678;29;20666;-62
2022/07/18 08:41:10;;;;;;;18.70;8.05;;;25.60;99.90;;;;;;4955249;28;20165;-62
2022/07/18 08:43:35;;;;;;;16.88;7.93;;;25.40;99.90;;;;;;4955551;28;20663;-62
2022/07/18 08:46:05;;;;;;;15.30;7.78;;;25.30;99.90;;;;;;4954233;29;20350;-62
2022/07/18 08:48:34;;;;;;;23.77;8.57;;;25.20;99.90;;;;;;4955701;29;20173;-61
2022/07/18 08:51:00;;;;;;;17.50;8.40;;;25.10;99.90;;;;;;4955423;29;20204;-61
2022/07/18 08:53:27;;;;;;;17.75;7.78;;;25.20;99.90;;;;;;4955460;29;20176;-61
2022/07/18 08:55:53;;;;;;;16.45;8.05;;;25.30;99.90;;;;;;4955262;29;20648;-62
2022/07/18 08:58:19;;;;;;;27.05;8.75;;;25.50;99.90;;;;;;4955145;29;20628;-62
2022/07/18 09:00:46;;;;;;;19.95;8.65;;;26.10;99.90;;;;;;4955174;29;20231;-62
2022/07/18 09:03:11;;;;;;;16.40;7.60;;;26.60;99.90;;;;;;4955166;29;20169;-61
2022/07/18 09:05:38;;;;;;;16.40;8.48;;;27.20;99.90;;;;;;4955077;29;20656;-61
2022/07/18 09:08:15;;;;;;;16.25;7.47;;;27.60;99.90;;;;;;4955020;29;20173;-61
2022/07/18 09:10:51;;;;;;;16.50;7.35;;;28.10;99.90;;;;;;4955017;29;20240;-60
2022/07/18 09:13:22;;;;;;;15.40;8.27;;;28.30;99.90;;;;;;4955092;29;20239;-61
2022/07/18 09:15:58;;;;;;;15.63;7.53;;;27.90;99.90;;;;;;4954846;29;20259;-62
2022/07/18 09:18:45;;;;;;;13.48;7.53;;;28.50;99.90;;;;;;4954939;29;20176;-60
2022/07/18 09:21:11;;;;;;;14.93;7.45;;;29.00;99.90;;;;;;4954969;28;20169;-61
2022/07/18 09:23:43;;;;;;;12.85;7.40;;;29.20;99.90;;;;;;4954947;29;20686;-62
2022/07/18 09:26:10;;;;;;;17.48;7.18;;;29.10;99.90;;;;;;4954859;28;20215;-61
2022/07/18 09:28:51;;;;;;;14.45;7.00;;;29.50;99.90;;;;;;4954857;29;20169;-62
2022/07/18 09:31:24;;;;;;;14.55;6.88;;;30.00;99.90;;;;;;4954774;28;20173;-63
2022/07/18 09:33:58;;;;;;;10.57;6.53;;;30.30;99.90;;;;;;4954721;29;20176;-61
2022/07/18 09:36:25;;;;;;;13.93;6.20;;;30.60;99.90;;;;;;4954580;29;20213;-61
2022/07/18 09:38:51;;;;;;;12.25;6.35;;;30.80;99.90;;;;;;4954516;28;20200;-62
2022/07/18 09:41:26;;;;;;;12.07;6.60;;;30.60;99.90;;;;;;4954400;29;20235;-61
2022/07/18 09:43:52;;;;;;;13.05;6.65;;;30.70;99.90;;;;;;4954440;29;20187;-61
2022/07/18 09:46:18;;;;;;;11.02;5.72;;;31.10;99.90;;;;;;4954386;29;20258;-62
2022/07/18 09:48:44;;;;;;;16.95;5.85;;;31.50;99.90;;;;;;4954507;29;20212;-61
2022/07/18 09:51:10;;;;;;;16.23;5.85;;;31.70;99.90;;;;;;4954421;28;20639;-62
2022/07/18 09:53:37;;;;;;;16.38;5.35;;;31.80;99.90;;;;;;4953446;28;20180;-62
2022/07/18 09:56:06;;;;;;;10.20;5.05;;;32.00;99.90;;;;;;4954323;29;20192;-62
2022/07/18 09:58:50;;;;;;;12.38;5.82;;;31.90;99.90;;;;;;4954420;28;20177;-62
2022/07/18 10:01:16;;;;;;;12.75;4.68;;;32.20;99.90;;;;;;4954439;29;20268;-62
2022/07/18 10:03:45;;;;;;;8.57;4.68;;;32.40;99.90;;;;;;4954032;29;20648;-63
2022/07/18 10:06:12;;;;;;;8.18;4.97;;;30.60;99.90;;;;;;4954095;29;20224;-61
2022/07/18 10:08:38;;;;;;;9.35;4.65;;;33.00;99.90;;;;;;4953794;28;20260;-61
2022/07/18 10:11:06;;;;;;;12.05;4.30;;;33.30;99.90;;;;;;4954102;28;20632;-61
2022/07/18 10:13:33;;;;;;;9.00;3.50;;;33.20;99.90;;;;;;4954287;28;20180;-62
2022/07/18 10:16:00;;;;;;;6.63;3.70;;;33.50;99.90;;;;;;4953660;28;20224;-61
2022/07/18 10:18:28;;;;;;;8.75;3.45;;;33.80;99.90;;;;;;4953861;29;20177;-62
2022/07/18 10:21:02;;;;;;;8.63;3.22;;;33.30;99.90;;;;;;4953875;28;20195;-60
2022/07/18 10:23:39;;;;;;;11.95;2.97;;;33.90;99.90;;;;;;4953827;29;20231;-61
2022/07/18 10:26:17;;;;;;;8.60;3.30;;;33.70;99.90;;;;;;4953688;29;20234;-61
2022/07/18 10:28:55;;;;;;;6.65;2.65;;;33.90;99.90;;;;;;4953630;29;20184;-61
2022/07/18 10:31:23;;;;;;;3.72;2.80;;;34.30;99.90;;;;;;4953471;29;20184;-60
2022/07/18 10:33:52;;;;;;;4.53;2.70;;;34.50;99.90;;;;;;4953861;29;20184;-61
2022/07/18 10:36:22;;;;;;;10.75;2.65;;;34.40;99.90;;;;;;4953392;29;20215;-61
2022/07/18 10:39:14;;;;;;;9.38;2.78;;;34.10;99.90;;;;;;4952289;29;20699;-61
2022/07/18 10:41:43;;;;;;;9.25;2.45;;;34.60;99.90;;;;;;4953464;28;20188;-61
2022/07/18 10:44:24;;;;;;;4.50;2.33;;;35.20;99.90;;;;;;4953520;29;20698;-61
2022/07/18 10:47:08;;;;;;;4.88;2.30;;;35.50;99.90;;;;;;4953301;29;20230;-61
2022/07/18 10:49:49;;;;;;;3.70;2.17;;;35.60;99.90;;;;;;4952252;29;20196;-61
2022/07/18 10:52:33;;;;;;;5.03;2.00;;;35.30;99.90;;;;;;4953301;29;20184;-61
2022/07/18 10:55:05;;;;;;;7.65;2.60;;;35.00;99.90;;;;;;4953356;29;20211;-60
2022/07/18 10:57:35;;;;;;;10.10;2.50;;;34.70;99.90;;;;;;4953334;29;20180;-61
2022/07/18 11:00:08;;;;;;;8.43;2.58;;;35.00;99.90;;;;;;4953085;29;20185;-61
2022/07/18 11:03:11;;;;;;;5.45;2.40;;;34.80;99.90;;;;;;4953155;29;20210;-61
2022/07/18 11:05:44;;;;;;;3.72;2.15;;;34.80;99.90;;;;;;4953023;29;20176;-61
2022/07/18 11:08:12;;;;;;;6.57;2.60;;;34.90;99.90;;;;;;4953222;28;20192;-61
2022/07/18 11:10:41;;;;;;;4.88;2.20;;;34.40;99.90;;;;;;4953049;29;20196;-61
2022/07/18 11:13:28;;;;;;;2.35;1.77;;;34.80;99.90;;;;;;4952847;29;20231;-61
2022/07/18 11:16:05;;;;;;;3.08;1.60;;;35.30;99.90;;;;;;4952745;29;20264;-62
2022/07/18 11:18:44;;;;;;;6.50;1.50;;;35.70;99.90;;;;;;4953180;29;20226;-62
2022/07/18 11:21:20;;;;;;;4.22;1.95;;;35.40;99.90;;;;;;4952953;29;20183;-61
2022/07/18 11:23:49;;;;;;;6.47;2.35;;;35.70;99.90;;;;;;4952954;29;20267;-62
2022/07/18 11:26:22;;;;;;;3.00;2.00;;;36.10;99.90;;;;;;4953027;29;20212;-61
2022/07/18 11:28:56;;;;;;;6.88;1.83;;;36.50;99.90;;;;;;4952828;28;20176;-61
2022/07/18 11:31:22;;;;;;;2.33;1.45;;;36.80;99.90;;;;;;4951557;29;20213;-61
2022/07/18 11:33:51;;;;;;;3.20;1.60;;;36.60;99.90;;;;;;4952812;29;20668;-61
2022/07/18 11:36:38;;;;;;;5.43;1.40;;;36.60;99.90;;;;;;4952786;29;20196;-61
2022/07/18 11:39:04;;;;;;;4.90;1.50;;;36.10;99.90;;;;;;4952774;29;20188;-61
2022/07/18 11:41:30;;;;;;;5.40;1.50;;;36.40;99.90;;;;;;4953010;29;20177;-61
2022/07/18 11:43:56;;;;;;;6.22;1.80;;;36.30;99.90;;;;;;4953008;29;20652;-61
2022/07/18 11:46:25;;;;;;;7.43;1.73;;;36.80;99.90;;;;;;4951328;29;20216;-61
2022/07/18 11:49:02;;;;;;;7.40;1.50;;;36.80;99.90;;;;;;4952841;29;20329;-61
2022/07/18 11:51:35;;;;;;;12.50;1.63;;;37.00;99.90;;;;;;4952671;29;20215;-61
2022/07/18 11:54:02;;;;;;;3.10;1.50;;;37.10;99.90;;;;;;4952832;29;20188;-62
2022/07/18 11:56:28;;;;;;;7.70;1.70;;;37.30;99.90;;;;;;4952656;29;20628;-63
2022/07/18 11:58:54;;;;;;;7.88;1.80;;;37.50;99.90;;;;;;4952652;29;20303;-62
2022/07/18 12:01:21;;;;;;;7.60;1.75;;;37.70;99.90;;;;;;4952609;29;20267;-61
2022/07/18 12:03:49;;;;;;;7.13;1.83;;;38.10;99.90;;;;;;4952545;29;20184;-62
2022/07/18 12:06:22;;;;;;;4.80;1.85;;;37.90;99.90;;;;;;4952552;29;20200;-62
2022/07/18 12:08:49;;;;;;;3.83;1.90;;;38.50;99.90;;;;;;4952496;29;20266;-62
2022/07/18 12:11:20;;;;;;;2.95;1.95;;;39.00;99.90;;;;;;4952541;29;20172;-62
2022/07/18 12:13:58;;;;;;;3.17;1.70;;;38.00;99.90;;;;;;4952522;29;20180;-62
2022/07/18 12:16:25;;;;;;;4.25;1.80;;;38.50;99.90;;;;;;4954516;28;20223;-61
2022/07/18 12:18:52;;;;;;;7.60;1.90;;;38.20;99.90;;;;;;4956110;29;20183;-62
2022/07/18 12:21:18;;;;;;;9.85;2.10;;;38.60;99.90;;;;;;4956093;29;20198;-62
2022/07/18 12:23:44;;;;;;;5.65;1.90;;;38.30;99.90;;;;;;4956036;29;20758;-62
2022/07/18 12:26:25;;;;;;;5.18;1.95;;;39.00;99.90;;;;;;4955721;29;20702;-62
2022/07/18 12:29:07;;;;;;;5.28;1.70;;;38.90;99.90;;;;;;4955785;29;20219;-61
2022/07/18 12:31:45;;;;;;;4.72;1.90;;;39.00;99.90;;;;;;4955960;29;20184;-62
2022/07/18 12:34:13;;;;;;;10.05;2.75;;;39.00;99.90;;;;;;4955795;29;20188;-61
2022/07/18 12:36:59;;;;;;;6.30;2.20;;;37.90;99.90;;;;;;4955834;28;20655;-62
2022/07/18 12:39:30;;;;;;;4.50;2.10;;;39.00;99.90;;;;;;4955788;29;20183;-62
2022/07/18 12:41:58;;;;;;;8.73;2.33;;;39.00;99.90;;;;;;4956025;28;20502;-62
2022/07/18 12:44:25;;;;;;;6.03;2.30;;;38.40;99.90;;;;;;4955639;29;20180;-62
2022/07/18 12:46:51;;;;;;;6.03;1.90;;;37.50;99.90;;;;;;4955633;29;20207;-62
2022/07/18 12:49:17;;;;;;;7.28;2.25;;;36.60;99.90;;;;;;4955611;29;20179;-62